createdAt,value
2022-12-27T00:00:33.974Z,68.56
2022-12-27T00:05:36.241Z,69.01
2022-12-27T00:10:39.158Z,68.69
2022-12-27T00:15:41.346Z,68.65
2022-12-27T00:20:43.480Z,68.83
2022-12-27T00:25:45.607Z,68.75
2022-12-27T00:30:55.511Z,68.87
2022-12-27T00:36:01.244Z,68.82
2022-12-27T00:41:04.313Z,69.32
2022-12-27T00:46:06.961Z,69.31
2022-12-27T00:51:15.145Z,69.46
2022-12-27T00:56:20.172Z,69.22
2022-12-27T01:01:24.419Z,68.97
2022-12-27T01:06:29.527Z,68.79
2022-12-27T01:11:33.268Z,69.56
2022-12-27T01:16:35.654Z,69.45
2022-12-27T01:21:37.845Z,68.97
2022-12-27T01:26:40.093Z,69.71
2022-12-27T01:31:42.255Z,69.63
2022-12-27T01:36:45.230Z,69.30
2022-12-27T01:42:05.946Z,69.19
2022-12-27T01:47:20.071Z,69.25
2022-12-27T01:52:24.829Z,69.37
2022-12-27T01:57:27.115Z,69.07
2022-12-27T02:02:29.608Z,69.07
2022-12-27T02:07:42.425Z,69.21
2022-12-27T02:12:44.763Z,69.32
2022-12-27T02:17:47.130Z,69.56
2022-12-27T02:23:26.520Z,69.27
2022-12-27T02:28:46.984Z,69.89
2022-12-27T02:33:52.610Z,69.54
2022-12-27T02:38:59.529Z,70.13
2022-12-27T02:44:20.635Z,69.43
2022-12-27T02:49:51.587Z,69.75
2022-12-27T02:55:09.562Z,69.74
2022-12-27T03:00:35.739Z,69.88
2022-12-27T03:06:30.157Z,69.44
2022-12-27T03:12:16.082Z,69.44
2022-12-27T03:17:31.116Z,69.79
2022-12-27T03:22:54.349Z,69.59
2022-12-27T03:28:23.597Z,69.43
2022-12-27T03:33:29.178Z,69.60
2022-12-27T03:38:36.868Z,69.64
2022-12-27T03:43:40.922Z,69.90
2022-12-27T03:49:04.010Z,70.54
2022-12-27T03:54:11.655Z,69.87
2022-12-27T03:59:13.839Z,69.76
2022-12-27T04:04:16.053Z,69.43
2022-12-27T04:09:36.860Z,69.99
2022-12-27T04:14:57.132Z,69.58
2022-12-27T04:20:17.891Z,69.53
2022-12-27T04:25:38.167Z,70.08
2022-12-27T04:30:58.681Z,69.71
2022-12-27T04:36:06.008Z,69.49
2022-12-27T04:41:26.937Z,69.09
2022-12-27T04:46:47.802Z,69.17
2022-12-27T04:52:08.311Z,69.33
2022-12-27T04:57:10.492Z,69.46
2022-12-27T05:02:12.995Z,69.33
2022-12-27T05:07:35.131Z,70.10
2022-12-27T05:12:55.690Z,69.54
2022-12-27T05:17:58.420Z,69.40
2022-12-27T05:23:19.405Z,69.58
2022-12-27T05:28:21.541Z,69.94
2022-12-27T05:33:23.711Z,69.68
2022-12-27T05:38:25.863Z,69.52
2022-12-27T05:43:28.952Z,69.53
2022-12-27T05:48:31.603Z,69.57
2022-12-27T05:53:33.842Z,70.04
2022-12-27T05:58:36.185Z,69.70
2022-12-27T06:03:39.199Z,69.83
2022-12-27T06:08:41.879Z,69.80
2022-12-27T06:13:49.036Z,70.32
2022-12-27T06:18:51.306Z,70.41
2022-12-27T06:23:53.538Z,70.24
2022-12-27T06:28:57.938Z,70.54
2022-12-27T06:34:00.090Z,70.21
2022-12-27T06:39:02.436Z,71.08
2022-12-27T06:44:04.755Z,70.69
2022-12-27T06:49:07.019Z,70.59
2022-12-27T06:54:09.250Z,70.79
2022-12-27T06:59:11.440Z,70.28
2022-12-27T07:04:13.584Z,70.45
2022-12-27T07:09:15.870Z,70.97
2022-12-27T07:14:18.082Z,70.62
2022-12-27T07:19:20.270Z,71.05
2022-12-27T07:24:22.471Z,70.77
2022-12-27T07:29:24.683Z,70.76
2022-12-27T07:34:26.805Z,70.33
2022-12-27T07:39:29.352Z,70.87
2022-12-27T07:44:31.471Z,70.13
2022-12-27T07:49:33.676Z,70.34
2022-12-27T07:54:36.336Z,70.14
2022-12-27T07:59:38.522Z,70.04
2022-12-27T08:04:40.753Z,69.76
2022-12-27T08:09:45.741Z,69.29
2022-12-27T08:14:47.912Z,69.32
2022-12-27T08:19:52.696Z,68.78
2022-12-27T08:24:56.648Z,68.82
2022-12-27T08:29:58.869Z,68.51
2022-12-27T08:37:16.176Z,68.93
2022-12-27T08:42:18.435Z,68.89
2022-12-27T08:47:20.631Z,68.76
2022-12-27T08:52:22.787Z,68.80
2022-12-27T08:57:24.980Z,68.28
2022-12-27T09:02:27.284Z,68.18
2022-12-27T09:07:30.097Z,67.88
2022-12-27T09:12:33.859Z,68.01
2022-12-27T09:17:36.382Z,67.33
2022-12-27T09:22:40.072Z,67.31
2022-12-27T09:27:42.198Z,66.44
2022-12-27T09:32:44.412Z,66.24
2022-12-27T09:37:46.563Z,66.61
2022-12-27T09:43:19.063Z,66.22
2022-12-27T09:48:35.076Z,65.27
2022-12-27T09:53:51.768Z,65.17
2022-12-27T09:58:57.816Z,64.62
2022-12-27T10:04:01.000Z,64.56
2022-12-27T10:09:30.919Z,64.42
2022-12-27T10:14:59.626Z,64.80
2022-12-27T10:20:31.323Z,64.45
2022-12-27T10:25:36.567Z,63.93
2022-12-27T10:30:41.132Z,63.87
2022-12-27T10:35:43.331Z,63.44
2022-12-27T10:40:59.859Z,63.21
2022-12-27T10:46:32.482Z,62.96
2022-12-27T10:51:37.878Z,62.39
2022-12-27T10:56:42.277Z,62.14
2022-12-27T11:01:46.555Z,62.19
2022-12-27T11:07:05.563Z,61.81
2022-12-27T11:12:25.868Z,61.75
2022-12-27T11:17:54.342Z,61.59
2022-12-27T11:23:06.340Z,60.92
2022-12-27T11:28:29.543Z,60.79
2022-12-27T11:33:39.751Z,60.76
2022-12-27T11:38:45.467Z,60.17
2022-12-27T11:44:01.314Z,60.27
2022-12-27T11:49:09.644Z,60.18
2022-12-27T11:54:21.211Z,59.93
2022-12-27T11:59:26.121Z,59.77
2022-12-27T12:04:46.169Z,59.40
2022-12-27T12:10:11.778Z,59.19
2022-12-27T12:15:32.499Z,59.12
2022-12-27T12:21:13.352Z,58.70
2022-12-27T12:26:22.441Z,58.56
2022-12-27T12:31:42.437Z,58.11
2022-12-27T12:37:14.654Z,58.10
2022-12-27T12:42:29.813Z,57.77
2022-12-27T12:47:50.110Z,57.45
2022-12-27T12:52:52.095Z,57.33
2022-12-27T12:58:06.227Z,57.42
2022-12-27T13:04:06.612Z,57.02
2022-12-27T13:09:17.862Z,56.32
2022-12-27T13:14:22.760Z,55.76
2022-12-27T13:19:59.379Z,56.17
2022-12-27T13:25:29.586Z,55.51
2022-12-27T13:30:49.019Z,54.99
2022-12-27T13:36:13.127Z,54.50
2022-12-27T13:41:30.208Z,54.02
2022-12-27T13:46:43.044Z,53.86
2022-12-27T13:51:50.355Z,52.89
2022-12-27T13:57:23.662Z,52.83
2022-12-27T14:02:37.873Z,52.32
2022-12-27T14:07:51.246Z,51.89
2022-12-27T14:12:53.365Z,51.56
2022-12-27T14:18:24.682Z,51.51
2022-12-27T14:23:54.694Z,50.97
2022-12-27T14:29:34.251Z,51.11
2022-12-27T14:34:40.992Z,50.32
2022-12-27T14:39:51.840Z,50.46
2022-12-27T14:45:35.142Z,50.29
2022-12-27T14:51:08.132Z,50.43
2022-12-27T14:56:24.979Z,50.72
2022-12-27T15:01:59.235Z,51.93
2022-12-27T15:07:42.983Z,53.64
2022-12-27T15:13:26.587Z,54.32
2022-12-27T15:18:56.046Z,55.24
2022-12-27T15:24:09.839Z,55.85
2022-12-27T15:29:24.327Z,56.70
2022-12-27T15:34:26.562Z,57.51
2022-12-27T15:39:35.942Z,58.53
2022-12-27T15:45:02.397Z,58.85
2022-12-27T15:50:20.675Z,59.54
2022-12-27T15:55:40.703Z,59.57
2022-12-27T16:00:44.921Z,60.14
2022-12-27T16:05:53.995Z,60.28
2022-12-27T16:10:57.128Z,60.93
2022-12-27T16:16:00.685Z,60.91
2022-12-27T16:21:22.940Z,61.38
2022-12-27T16:26:31.114Z,61.69
2022-12-27T16:31:41.842Z,61.68
2022-12-27T16:36:49.004Z,61.92
2022-12-27T16:41:57.186Z,62.55
2022-12-27T16:47:11.192Z,62.43
2022-12-27T16:52:13.369Z,62.88
2022-12-27T16:57:24.398Z,63.40
2022-12-27T17:02:40.524Z,63.50
2022-12-27T17:07:51.725Z,63.59
2022-12-27T17:13:14.895Z,63.78
2022-12-27T17:18:31.400Z,64.12
2022-12-27T17:23:41.078Z,64.45
2022-12-27T17:29:06.817Z,64.62
2022-12-27T17:34:11.608Z,65.10
2022-12-27T17:39:25.812Z,64.74
2022-12-27T17:44:52.001Z,65.25
2022-12-27T17:49:58.204Z,65.17
2022-12-27T17:55:36.177Z,65.25
2022-12-27T18:26:39.303Z,66.32
2022-12-27T18:31:55.354Z,66.26
2022-12-27T18:37:05.230Z,66.62
2022-12-27T18:42:31.577Z,67.43
2022-12-27T18:47:40.671Z,67.33
2022-12-27T18:52:46.293Z,66.98
2022-12-27T18:58:20.183Z,67.10
2022-12-27T19:03:23.261Z,67.13
2022-12-27T19:08:29.246Z,67.08
2022-12-27T19:13:37.504Z,67.91
2022-12-27T19:18:39.784Z,68.55
2022-12-27T19:23:51.752Z,68.30
2022-12-27T19:29:08.696Z,67.86
2022-12-27T19:34:17.189Z,68.17
2022-12-27T19:39:26.077Z,68.10
2022-12-27T19:44:28.443Z,68.23
2022-12-27T19:49:45.872Z,68.33
2022-12-27T19:54:50.200Z,68.43
2022-12-27T19:59:52.324Z,68.69
2022-12-27T20:04:54.525Z,68.37
2022-12-27T20:09:56.797Z,68.56
2022-12-27T20:14:59.022Z,68.75
2022-12-27T20:20:01.293Z,68.88
2022-12-27T20:25:03.507Z,68.83
2022-12-27T20:30:06.353Z,68.81
2022-12-27T20:35:10.584Z,68.67
2022-12-27T20:40:12.964Z,69.10
2022-12-27T20:45:25.770Z,68.88
2022-12-27T20:50:27.983Z,68.80
2022-12-27T20:55:31.760Z,68.97
2022-12-27T21:00:33.994Z,68.49
2022-12-27T21:05:37.204Z,68.91
2022-12-27T21:10:39.375Z,68.75
2022-12-27T21:15:46.289Z,68.37
2022-12-27T21:20:48.409Z,68.34
2022-12-27T21:25:50.593Z,68.60
2022-12-27T21:31:02.777Z,68.48
2022-12-27T21:36:08.289Z,68.68
2022-12-27T21:41:31.104Z,68.45
2022-12-27T21:46:38.698Z,68.84
2022-12-27T21:51:42.523Z,68.71
2022-12-27T21:56:44.731Z,69.03
2022-12-27T22:01:52.864Z,69.31
2022-12-27T22:06:55.146Z,69.67
2022-12-27T22:11:58.843Z,69.32
2022-12-27T22:17:02.527Z,69.36
2022-12-27T22:22:04.754Z,69.48
2022-12-27T22:27:06.942Z,69.47
2022-12-27T22:32:09.159Z,69.33
2022-12-27T22:37:11.286Z,69.19
2022-12-27T22:42:13.446Z,69.68
2022-12-27T22:47:26.150Z,69.70
2022-12-27T22:52:29.480Z,69.54
2022-12-27T22:57:31.665Z,69.32
2022-12-27T23:02:35.357Z,69.74
2022-12-27T23:08:06.091Z,69.26
2022-12-27T23:12:59.844Z,69.40
2022-12-27T23:18:02.019Z,69.41
2022-12-27T23:23:04.172Z,69.47
2022-12-27T23:28:06.289Z,69.49
2022-12-27T23:33:12.173Z,69.50
2022-12-27T23:38:14.443Z,69.71
2022-12-27T23:43:50.374Z,69.81
2022-12-27T23:48:39.040Z,69.81
2022-12-27T23:53:42.074Z,69.88
2022-12-27T23:58:50.771Z,70.38
